sensor_id;sensor_type;location;lat;lon;timestamp;P1;P4;P2;P0;N10;N4;N25;N1;N05;TS
82310;SPS30;72015;51.330;12.316;2024-02-04T00:03:26;5.87;;5.31;;;;;;;
82310;SPS30;72015;51.330;12.316;2024-02-04T00:07:32;5.87;;5.31;;;;;;;
82310;SPS30;72015;51.330;12.316;2024-02-04T00:11:38;5.87;;5.31;;;;;;;
82310;SPS30;72015;51.330;12.316;2024-02-04T00:15:44;5.40;;5.13;;;;;;;
82310;SPS30;72015;51.330;12.316;2024-02-04T00:19:50;5.40;;5.13;;;;;;;
82310;SPS30;72015;51.330;12.316;2024-02-04T00:23:56;10.00;;8.12;;;;;;;
82310;SPS30;72015;51.330;12.316;2024-02-04T00:28:02;10.00;;8.12;;;;;;;
82310;SPS30;72015;51.330;12.316;2024-02-04T00:32:08;10.00;;8.12;;;;;;;
82310;SPS30;72015;51.330;12.316;2024-02-04T00:36:14;7.11;;6.83;;;;;;;
82310;SPS30;72015;51.330;12.316;2024-02-04T00:40:20;7.11;;6.83;;;;;;;
82310;SPS30;72015;51.330;12.316;2024-02-04T00:44:26;5.53;;5.10;;;;;;;
82310;SPS30;72015;51.330;12.316;2024-02-04T00:48:32;5.53;;5.10;;;;;;;
82310;SPS30;72015;51.330;12.316;2024-02-04T00:52:38;7.77;;6.16;;;;;;;
82310;SPS30;72015;51.330;12.316;2024-02-04T00:56:44;7.77;;6.16;;;;;;;
82310;SPS30;72015;51.330;12.316;2024-02-04T01:00:50;7.77;;6.16;;;;;;;
82310;SPS30;72015;51.330;12.316;2024-02-04T01:04:56;7.81;;6.17;;;;;;;
82310;SPS30;72015;51.330;12.316;2024-02-04T01:09:02;7.81;;6.17;;;;;;;
82310;SPS30;72015;51.330;12.316;2024-02-04T01:13:08;4.43;;4.34;;;;;;;
82310;SPS30;72015;51.330;12.316;2024-02-04T01:17:14;4.43;;4.34;;;;;;;
82310;SPS30;72015;51.330;12.316;2024-02-04T01:21:20;4.43;;4.34;;;;;;;
82310;SPS30;72015;51.330;12.316;2024-02-04T01:25:26;8.09;;7.03;;;;;;;
82310;SPS30;72015;51.330;12.316;2024-02-04T01:29:32;8.09;;7.03;;;;;;;
82310;SPS30;72015;51.330;12.316;2024-02-04T01:33:38;5.01;;5.01;;;;;;;
82310;SPS30;72015;51.330;12.316;2024-02-04T01:37:44;5.01;;5.01;;;;;;;
82310;SPS30;72015;51.330;12.316;2024-02-04T01:41:50;5.01;;5.01;;;;;;;
82310;SPS30;72015;51.330;12.316;2024-02-04T01:45:56;6.14;;5.25;;;;;;;
82310;SPS30;72015;51.330;12.316;2024-02-04T01:50:02;6.14;;5.25;;;;;;;
82310;SPS30;72015;51.330;12.316;2024-02-04T01:54:08;6.16;;5.52;;;;;;;
82310;SPS30;72015;51.330;12.316;2024-02-04T01:58:14;6.16;;5.52;;;;;;;
82310;SPS30;72015;51.330;12.316;2024-02-04T02:02:20;6.16;;5.52;;;;;;;
82310;SPS30;72015;51.330;12.316;2024-02-04T02:06:26;8.74;;7.43;;;;;;;
82310;SPS30;72015;51.330;12.316;2024-02-04T02:10:32;8.74;;7.43;;;;;;;
82310;SPS30;72015;51.330;12.316;2024-02-04T02:14:39;9.30;;8.17;;;;;;;
82310;SPS30;72015;51.330;12.316;2024-02-04T02:18:46;9.30;;8.17;;;;;;;
82310;SPS30;72015;51.330;12.316;2024-02-04T02:22:53;7.57;;7.57;;;;;;;
82310;SPS30;72015;51.330;12.316;2024-02-04T02:26:56;7.57;;7.57;;;;;;;
82310;SPS30;72015;51.330;12.316;2024-02-04T02:31:02;7.57;;7.57;;;;;;;
82310;SPS30;72015;51.330;12.316;2024-02-04T02:35:08;6.60;;6.42;;;;;;;
82310;SPS30;72015;51.330;12.316;2024-02-04T02:39:18;6.60;;6.42;;;;;;;
82310;SPS30;72015;51.330;12.316;2024-02-04T02:43:20;7.32;;7.32;;;;;;;
82310;SPS30;72015;51.330;12.316;2024-02-04T02:47:26;7.32;;7.32;;;;;;;
82310;SPS30;72015;51.330;12.316;2024-02-04T02:51:32;7.32;;7.32;;;;;;;
82310;SPS30;72015;51.330;12.316;2024-02-04T02:55:38;4.97;;4.97;;;;;;;
82310;SPS30;72015;51.330;12.316;2024-02-04T02:59:44;4.97;;4.97;;;;;;;
82310;SPS30;72015;51.330;12.316;2024-02-04T03:03:50;6.90;;5.75;;;;;;;
82310;SPS30;72015;51.330;12.316;2024-02-04T03:07:56;6.90;;5.75;;;;;;;
82310;SPS30;72015;51.330;12.316;2024-02-04T03:12:02;6.90;;5.75;;;;;;;
82310;SPS30;72015;51.330;12.316;2024-02-04T03:16:11;4.80;;4.61;;;;;;;
82310;SPS30;72015;51.330;12.316;2024-02-04T03:20:14;4.80;;4.61;;;;;;;
82310;SPS30;72015;51.330;12.316;2024-02-04T03:24:20;6.43;;5.18;;;;;;;
82310;SPS30;72015;51.330;12.316;2024-02-04T03:28:26;6.43;;5.18;;;;;;;
82310;SPS30;72015;51.330;12.316;2024-02-04T03:32:32;3.18;;3.18;;;;;;;
82310;SPS30;72015;51.330;12.316;2024-02-04T03:36:38;3.18;;3.18;;;;;;;
82310;SPS30;72015;51.330;12.316;2024-02-04T03:40:44;3.18;;3.18;;;;;;;
82310;SPS30;72015;51.330;12.316;2024-02-04T03:44:50;4.97;;4.47;;;;;;;
82310;SPS30;72015;51.330;12.316;2024-02-04T03:48:56;4.97;;4.47;;;;;;;
82310;SPS30;72015;51.330;12.316;2024-02-04T03:53:02;3.57;;3.57;;;;;;;
82310;SPS30;72015;51.330;12.316;2024-02-04T03:57:08;3.57;;3.57;;;;;;;
82310;SPS30;72015;51.330;12.316;2024-02-04T04:01:14;3.57;;3.57;;;;;;;
82310;SPS30;72015;51.330;12.316;2024-02-04T04:05:20;5.50;;4.41;;;;;;;
82310;SPS30;72015;51.330;12.316;2024-02-04T04:09:26;5.50;;4.41;;;;;;;
82310;SPS30;72015;51.330;12.316;2024-02-04T04:13:32;5.25;;4.39;;;;;;;
82310;SPS30;72015;51.330;12.316;2024-02-04T04:17:38;5.25;;4.39;;;;;;;
82310;SPS30;72015;51.330;12.316;2024-02-04T04:21:44;5.25;;4.39;;;;;;;
82310;SPS30;72015;51.330;12.316;2024-02-04T04:25:50;5.03;;4.23;;;;;;;
82310;SPS30;72015;51.330;12.316;2024-02-04T04:29:56;5.03;;4.23;;;;;;;
82310;SPS30;72015;51.330;12.316;2024-02-04T04:34:02;4.40;;3.97;;;;;;;
82310;SPS30;72015;51.330;12.316;2024-02-04T04:38:08;4.40;;3.97;;;;;;;
82310;SPS30;72015;51.330;12.316;2024-02-04T04:42:14;4.40;;3.97;;;;;;;
82310;SPS30;72015;51.330;12.316;2024-02-04T04:46:20;6.27;;5.39;;;;;;;
82310;SPS30;72015;51.330;12.316;2024-02-04T04:50:26;6.27;;5.39;;;;;;;
82310;SPS30;72015;51.330;12.316;2024-02-04T04:54:32;4.72;;4.51;;;;;;;
82310;SPS30;72015;51.330;12.316;2024-02-04T04:58:38;4.72;;4.51;;;;;;;
82310;SPS30;72015;51.330;12.316;2024-02-04T05:02:44;4.84;;4.23;;;;;;;
82310;SPS30;72015;51.330;12.316;2024-02-04T05:06:51;4.84;;4.23;;;;;;;
82310;SPS30;72015;51.330;12.316;2024-02-04T05:10:56;4.84;;4.23;;;;;;;
82310;SPS30;72015;51.330;12.316;2024-02-04T05:15:03;4.56;;3.87;;;;;;;
82310;SPS30;72015;51.330;12.316;2024-02-04T05:19:08;4.56;;3.87;;;;;;;
82310;SPS30;72015;51.330;12.316;2024-02-04T05:23:14;4.12;;3.71;;;;;;;
82310;SPS30;72015;51.330;12.316;2024-02-04T05:27:20;4.12;;3.71;;;;;;;
82310;SPS30;72015;51.330;12.316;2024-02-04T05:31:26;4.12;;3.71;;;;;;;
82310;SPS30;72015;51.330;12.316;2024-02-04T05:35:32;6.30;;5.31;;;;;;;
82310;SPS30;72015;51.330;12.316;2024-02-04T05:39:38;6.30;;5.31;;;;;;;
82310;SPS30;72015;51.330;12.316;2024-02-04T05:43:44;4.91;;4.59;;;;;;;
82310;SPS30;72015;51.330;12.316;2024-02-04T05:47:50;4.91;;4.59;;;;;;;
82310;SPS30;72015;51.330;12.316;2024-02-04T05:51:56;4.91;;4.59;;;;;;;
82310;SPS30;72015;51.330;12.316;2024-02-04T05:56:02;9.59;;7.52;;;;;;;
82310;SPS30;72015;51.330;12.316;2024-02-04T06:00:09;9.59;;7.52;;;;;;;
82310;SPS30;72015;51.330;12.316;2024-02-04T06:04:14;5.26;;4.80;;;;;;;
82310;SPS30;72015;51.330;12.316;2024-02-04T06:08:20;5.26;;4.80;;;;;;;
82310;SPS30;72015;51.330;12.316;2024-02-04T06:12:26;5.04;;4.81;;;;;;;
82310;SPS30;72015;51.330;12.316;2024-02-04T06:16:32;5.04;;4.81;;;;;;;
82310;SPS30;72015;51.330;12.316;2024-02-04T06:20:38;5.04;;4.81;;;;;;;
82310;SPS30;72015;51.330;12.316;2024-02-04T06:24:44;4.82;;4.26;;;;;;;
82310;SPS30;72015;51.330;12.316;2024-02-04T06:28:50;4.82;;4.26;;;;;;;
82310;SPS30;72015;51.330;12.316;2024-02-04T06:32:56;3.30;;3.08;;;;;;;
82310;SPS30;72015;51.330;12.316;2024-02-04T06:37:03;3.30;;3.08;;;;;;;
82310;SPS30;72015;51.330;12.316;2024-02-04T06:41:08;3.30;;3.08;;;;;;;
82310;SPS30;72015;51.330;12.316;2024-02-04T06:45:14;1.53;;1.53;;;;;;;
82310;SPS30;72015;51.330;12.316;2024-02-04T06:49:20;1.53;;1.53;;;;;;;
82310;SPS30;72015;51.330;12.316;2024-02-04T06:53:26;1.70;;1.70;;;;;;;
82310;SPS30;72015;51.330;12.316;2024-02-04T06:57:32;1.70;;1.70;;;;;;;
82310;SPS30;72015;51.330;12.316;2024-02-04T07:01:38;1.70;;1.70;;;;;;;
82310;SPS30;72015;51.330;12.316;2024-02-04T07:05:44;1.60;;1.60;;;;;;;
82310;SPS30;72015;51.330;12.316;2024-02-04T07:09:50;1.60;;1.60;;;;;;;
82310;SPS30;72015;51.330;12.316;2024-02-04T07:13:57;1.73;;1.56;;;;;;;
82310;SPS30;72015;51.330;12.316;2024-02-04T07:18:03;1.73;;1.56;;;;;;;
82310;SPS30;72015;51.330;12.316;2024-02-04T07:22:08;1.73;;1.56;;;;;;;
82310;SPS30;72015;51.330;12.316;2024-02-04T07:26:14;1.30;;1.30;;;;;;;
82310;SPS30;72015;51.330;12.316;2024-02-04T07:30:20;1.30;;1.30;;;;;;;
82310;SPS30;72015;51.330;12.316;2024-02-04T07:34:26;0.96;;0.96;;;;;;;
82310;SPS30;72015;51.330;12.316;2024-02-04T07:38:32;0.96;;0.96;;;;;;;
82310;SPS30;72015;51.330;12.316;2024-02-04T07:42:38;1.32;;1.16;;;;;;;
82310;SPS30;72015;51.330;12.316;2024-02-04T07:46:44;1.32;;1.16;;;;;;;
82310;SPS30;72015;51.330;12.316;2024-02-04T07:50:50;1.32;;1.16;;;;;;;
82310;SPS30;72015;51.330;12.316;2024-02-04T07:54:56;0.99;;0.99;;;;;;;
82310;SPS30;72015;51.330;12.316;2024-02-04T07:59:02;0.99;;0.99;;;;;;;
82310;SPS30;72015;51.330;12.316;2024-02-04T08:03:09;1.57;;1.16;;;;;;;
82310;SPS30;72015;51.330;12.316;2024-02-04T08:07:15;1.57;;1.16;;;;;;;
82310;SPS30;72015;51.330;12.316;2024-02-04T08:11:21;1.57;;1.16;;;;;;;
82310;SPS30;72015;51.330;12.316;2024-02-04T08:15:27;1.18;;0.96;;;;;;;
82310;SPS30;72015;51.330;12.316;2024-02-04T08:19:33;1.18;;0.96;;;;;;;
82310;SPS30;72015;51.330;12.316;2024-02-04T08:23:39;2.28;;1.60;;;;;;;
82310;SPS30;72015;51.330;12.316;2024-02-04T08:27:45;2.28;;1.60;;;;;;;
82310;SPS30;72015;51.330;12.316;2024-02-04T08:31:53;2.28;;1.60;;;;;;;
82310;SPS30;72015;51.330;12.316;2024-02-04T08:35:57;0.62;;0.62;;;;;;;
82310;SPS30;72015;51.330;12.316;2024-02-04T08:40:03;0.62;;0.62;;;;;;;
82310;SPS30;72015;51.330;12.316;2024-02-04T08:44:09;1.57;;1.35;;;;;;;
82310;SPS30;72015;51.330;12.316;2024-02-04T08:48:15;1.57;;1.35;;;;;;;
82310;SPS30;72015;51.330;12.316;2024-02-04T08:52:21;1.57;;1.35;;;;;;;
82310;SPS30;72015;51.330;12.316;2024-02-04T08:56:27;4.70;;3.59;;;;;;;
82310;SPS30;72015;51.330;12.316;2024-02-04T09:00:33;4.70;;3.59;;;;;;;
82310;SPS30;72015;51.330;12.316;2024-02-04T09:04:39;3.66;;2.60;;;;;;;
82310;SPS30;72015;51.330;12.316;2024-02-04T09:08:45;3.66;;2.60;;;;;;;
82310;SPS30;72015;51.330;12.316;2024-02-04T09:12:51;2.62;;2.04;;;;;;;
82310;SPS30;72015;51.330;12.316;2024-02-04T09:16:57;2.62;;2.04;;;;;;;
82310;SPS30;72015;51.330;12.316;2024-02-04T09:21:03;2.62;;2.04;;;;;;;
82310;SPS30;72015;51.330;12.316;2024-02-04T09:25:09;2.54;;2.09;;;;;;;
82310;SPS30;72015;51.330;12.316;2024-02-04T09:29:15;2.54;;2.09;;;;;;;
82310;SPS30;72015;51.330;12.316;2024-02-04T09:33:21;3.38;;2.56;;;;;;;
82310;SPS30;72015;51.330;12.316;2024-02-04T09:37:27;3.38;;2.56;;;;;;;
82310;SPS30;72015;51.330;12.316;2024-02-04T09:41:33;3.38;;2.56;;;;;;;
82310;SPS30;72015;51.330;12.316;2024-02-04T09:45:39;3.03;;2.83;;;;;;;
82310;SPS30;72015;51.330;12.316;2024-02-04T09:49:45;3.03;;2.83;;;;;;;
82310;SPS30;72015;51.330;12.316;2024-02-04T09:53:52;4.65;;4.65;;;;;;;
82310;SPS30;72015;51.330;12.316;2024-02-04T09:57:57;4.65;;4.65;;;;;;;
82310;SPS30;72015;51.330;12.316;2024-02-04T10:02:03;4.65;;4.65;;;;;;;
82310;SPS30;72015;51.330;12.316;2024-02-04T10:06:09;3.89;;3.89;;;;;;;
82310;SPS30;72015;51.330;12.316;2024-02-04T10:10:15;3.89;;3.89;;;;;;;
82310;SPS30;72015;51.330;12.316;2024-02-04T10:14:21;3.76;;3.20;;;;;;;
82310;SPS30;72015;51.330;12.316;2024-02-04T10:18:27;3.76;;3.20;;;;;;;
82310;SPS30;72015;51.330;12.316;2024-02-04T10:22:33;3.61;;3.61;;;;;;;
82310;SPS30;72015;51.330;12.316;2024-02-04T10:26:39;3.61;;3.61;;;;;;;
82310;SPS30;72015;51.330;12.316;2024-02-04T10:30:45;3.61;;3.61;;;;;;;
82310;SPS30;72015;51.330;12.316;2024-02-04T10:34:51;1.32;;1.32;;;;;;;
82310;SPS30;72015;51.330;12.316;2024-02-04T10:38:57;1.32;;1.32;;;;;;;
82310;SPS30;72015;51.330;12.316;2024-02-04T10:43:03;4.84;;3.27;;;;;;;
82310;SPS30;72015;51.330;12.316;2024-02-04T10:47:09;4.84;;3.27;;;;;;;
82310;SPS30;72015;51.330;12.316;2024-02-04T10:51:15;4.84;;3.27;;;;;;;
82310;SPS30;72015;51.330;12.316;2024-02-04T10:55:21;1.38;;1.38;;;;;;;
82310;SPS30;72015;51.330;12.316;2024-02-04T10:59:27;1.38;;1.38;;;;;;;
82310;SPS30;72015;51.330;12.316;2024-02-04T11:03:33;3.68;;3.07;;;;;;;
82310;SPS30;72015;51.330;12.316;2024-02-04T11:07:39;3.68;;3.07;;;;;;;
82310;SPS30;72015;51.330;12.316;2024-02-04T11:11:45;3.68;;3.07;;;;;;;
82310;SPS30;72015;51.330;12.316;2024-02-04T11:15:51;3.10;;2.88;;;;;;;
82310;SPS30;72015;51.330;12.316;2024-02-04T11:20:15;3.10;;2.88;;;;;;;
82310;SPS30;72015;51.330;12.316;2024-02-04T11:28:09;6.94;;5.41;;;;;;;
82310;SPS30;72015;51.330;12.316;2024-02-04T11:32:15;6.94;;5.41;;;;;;;
82310;SPS30;72015;51.330;12.316;2024-02-04T11:36:24;5.58;;4.91;;;;;;;
82310;SPS30;72015;51.330;12.316;2024-02-04T11:40:45;5.58;;4.91;;;;;;;
82310;SPS30;72015;51.330;12.316;2024-02-04T11:44:33;5.05;;5.05;;;;;;;
82310;SPS30;72015;51.330;12.316;2024-02-04T11:48:39;5.05;;5.05;;;;;;;
82310;SPS30;72015;51.330;12.316;2024-02-04T11:52:45;5.04;;5.04;;;;;;;
82310;SPS30;72015;51.330;12.316;2024-02-04T11:56:51;5.04;;5.04;;;;;;;
82310;SPS30;72015;51.330;12.316;2024-02-04T12:00:57;5.04;;5.04;;;;;;;
82310;SPS30;72015;51.330;12.316;2024-02-04T12:05:03;4.26;;4.05;;;;;;;
82310;SPS30;72015;51.330;12.316;2024-02-04T12:09:09;4.26;;4.05;;;;;;;
82310;SPS30;72015;51.330;12.316;2024-02-04T12:13:15;4.04;;4.04;;;;;;;
82310;SPS30;72015;51.330;12.316;2024-02-04T12:17:21;4.04;;4.04;;;;;;;
82310;SPS30;72015;51.330;12.316;2024-02-04T12:21:27;4.04;;4.04;;;;;;;
82310;SPS30;72015;51.330;12.316;2024-02-04T12:25:33;3.53;;3.53;;;;;;;
82310;SPS30;72015;51.330;12.316;2024-02-04T12:29:39;3.53;;3.53;;;;;;;
82310;SPS30;72015;51.330;12.316;2024-02-04T12:37:55;3.89;;3.75;;;;;;;
82310;SPS30;72015;51.330;12.316;2024-02-04T12:41:57;3.89;;3.75;;;;;;;
82310;SPS30;72015;51.330;12.316;2024-02-04T12:46:03;4.70;;4.27;;;;;;;
82310;SPS30;72015;51.330;12.316;2024-02-04T12:50:10;4.70;;4.27;;;;;;;
82310;SPS30;72015;51.330;12.316;2024-02-04T12:54:15;5.37;;4.26;;;;;;;
82310;SPS30;72015;51.330;12.316;2024-02-04T12:58:21;5.37;;4.26;;;;;;;
82310;SPS30;72015;51.330;12.316;2024-02-04T13:02:27;2.69;;2.37;;;;;;;
82310;SPS30;72015;51.330;12.316;2024-02-04T13:06:37;2.69;;2.37;;;;;;;
82310;SPS30;72015;51.330;12.316;2024-02-04T13:10:39;2.69;;2.37;;;;;;;
82310;SPS30;72015;51.330;12.316;2024-02-04T13:14:45;3.00;;2.88;;;;;;;
82310;SPS30;72015;51.330;12.316;2024-02-04T13:18:52;3.00;;2.88;;;;;;;
82310;SPS30;72015;51.330;12.316;2024-02-04T13:22:57;4.07;;3.68;;;;;;;
82310;SPS30;72015;51.330;12.316;2024-02-04T13:27:03;4.07;;3.68;;;;;;;
82310;SPS30;72015;51.330;12.316;2024-02-04T13:31:09;4.07;;3.68;;;;;;;
82310;SPS30;72015;51.330;12.316;2024-02-04T13:35:15;3.39;;3.39;;;;;;;
82310;SPS30;72015;51.330;12.316;2024-02-04T13:39:21;3.39;;3.39;;;;;;;
82310;SPS30;72015;51.330;12.316;2024-02-04T13:43:27;13.40;;13.40;;;;;;;
82310;SPS30;72015;51.330;12.316;2024-02-04T13:47:33;13.40;;13.40;;;;;;;
82310;SPS30;72015;51.330;12.316;2024-02-04T13:51:39;13.40;;13.40;;;;;;;
82310;SPS30;72015;51.330;12.316;2024-02-04T13:55:45;3.61;;3.32;;;;;;;
82310;SPS30;72015;51.330;12.316;2024-02-04T13:59:51;3.61;;3.32;;;;;;;
82310;SPS30;72015;51.330;12.316;2024-02-04T14:03:57;3.80;;3.80;;;;;;;
82310;SPS30;72015;51.330;12.316;2024-02-04T14:08:03;3.80;;3.80;;;;;;;
82310;SPS30;72015;51.330;12.316;2024-02-04T14:12:09;3.80;;3.80;;;;;;;
82310;SPS30;72015;51.330;12.316;2024-02-04T14:16:15;4.64;;3.83;;;;;;;
82310;SPS30;72015;51.330;12.316;2024-02-04T14:20:21;4.64;;3.83;;;;;;;
82310;SPS30;72015;51.330;12.316;2024-02-04T14:24:27;6.05;;4.74;;;;;;;
82310;SPS30;72015;51.330;12.316;2024-02-04T14:28:33;6.05;;4.74;;;;;;;
82310;SPS30;72015;51.330;12.316;2024-02-04T14:32:39;2.76;;2.45;;;;;;;
82310;SPS30;72015;51.330;12.316;2024-02-04T14:36:45;2.76;;2.45;;;;;;;
82310;SPS30;72015;51.330;12.316;2024-02-04T14:40:51;2.76;;2.45;;;;;;;
82310;SPS30;72015;51.330;12.316;2024-02-04T14:44:57;2.88;;2.44;;;;;;;
82310;SPS30;72015;51.330;12.316;2024-02-04T14:49:03;2.88;;2.44;;;;;;;
82310;SPS30;72015;51.330;12.316;2024-02-04T14:53:09;2.02;;2.02;;;;;;;
82310;SPS30;72015;51.330;12.316;2024-02-04T14:57:15;2.02;;2.02;;;;;;;
82310;SPS30;72015;51.330;12.316;2024-02-04T15:01:21;2.02;;2.02;;;;;;;
82310;SPS30;72015;51.330;12.316;2024-02-04T15:05:27;2.58;;2.50;;;;;;;
82310;SPS30;72015;51.330;12.316;2024-02-04T15:09:34;2.58;;2.50;;;;;;;
82310;SPS30;72015;51.330;12.316;2024-02-04T15:13:39;2.90;;2.74;;;;;;;
82310;SPS30;72015;51.330;12.316;2024-02-04T15:17:45;2.90;;2.74;;;;;;;
82310;SPS30;72015;51.330;12.316;2024-02-04T15:21:51;2.90;;2.74;;;;;;;
82310;SPS30;72015;51.330;12.316;2024-02-04T15:25:57;2.07;;2.07;;;;;;;
82310;SPS30;72015;51.330;12.316;2024-02-04T15:30:04;2.07;;2.07;;;;;;;
82310;SPS30;72015;51.330;12.316;2024-02-04T15:34:09;2.63;;2.40;;;;;;;
82310;SPS30;72015;51.330;12.316;2024-02-04T15:38:15;2.63;;2.40;;;;;;;
82310;SPS30;72015;51.330;12.316;2024-02-04T15:42:21;2.63;;2.40;;;;;;;
82310;SPS30;72015;51.330;12.316;2024-02-04T15:46:27;2.55;;2.31;;;;;;;
82310;SPS30;72015;51.330;12.316;2024-02-04T15:50:33;2.55;;2.31;;;;;;;
82310;SPS30;72015;51.330;12.316;2024-02-04T15:54:39;4.44;;3.43;;;;;;;
82310;SPS30;72015;51.330;12.316;2024-02-04T15:58:45;4.44;;3.43;;;;;;;
82310;SPS30;72015;51.330;12.316;2024-02-04T16:02:52;5.14;;3.90;;;;;;;
82310;SPS30;72015;51.330;12.316;2024-02-04T16:06:58;5.14;;3.90;;;;;;;
82310;SPS30;72015;51.330;12.316;2024-02-04T16:11:12;5.14;;3.90;;;;;;;
82310;SPS30;72015;51.330;12.316;2024-02-04T16:15:10;2.19;;2.19;;;;;;;
82310;SPS30;72015;51.330;12.316;2024-02-04T16:19:16;2.19;;2.19;;;;;;;
82310;SPS30;72015;51.330;12.316;2024-02-04T16:23:21;4.39;;3.66;;;;;;;
82310;SPS30;72015;51.330;12.316;2024-02-04T16:27:27;4.39;;3.66;;;;;;;
82310;SPS30;72015;51.330;12.316;2024-02-04T16:31:33;4.39;;3.66;;;;;;;
82310;SPS30;72015;51.330;12.316;2024-02-04T16:35:39;3.35;;3.35;;;;;;;
82310;SPS30;72015;51.330;12.316;2024-02-04T16:39:45;3.35;;3.35;;;;;;;
82310;SPS30;72015;51.330;12.316;2024-02-04T16:43:51;3.25;;3.25;;;;;;;
82310;SPS30;72015;51.330;12.316;2024-02-04T16:47:57;3.25;;3.25;;;;;;;
82310;SPS30;72015;51.330;12.316;2024-02-04T16:52:04;3.25;;3.25;;;;;;;
82310;SPS30;72015;51.330;12.316;2024-02-04T16:56:09;4.90;;4.66;;;;;;;
82310;SPS30;72015;51.330;12.316;2024-02-04T17:00:15;4.90;;4.66;;;;;;;
82310;SPS30;72015;51.330;12.316;2024-02-04T17:04:21;3.85;;3.82;;;;;;;
82310;SPS30;72015;51.330;12.316;2024-02-04T17:08:27;3.85;;3.82;;;;;;;
82310;SPS30;72015;51.330;12.316;2024-02-04T17:12:33;3.59;;3.59;;;;;;;
82310;SPS30;72015;51.330;12.316;2024-02-04T17:20:47;3.59;;3.59;;;;;;;
82310;SPS30;72015;51.330;12.316;2024-02-04T17:24:51;4.19;;3.96;;;;;;;
82310;SPS30;72015;51.330;12.316;2024-02-04T17:28:58;4.19;;3.96;;;;;;;
82310;SPS30;72015;51.330;12.316;2024-02-04T17:33:04;5.96;;5.36;;;;;;;
82310;SPS30;72015;51.330;12.316;2024-02-04T17:37:09;5.96;;5.36;;;;;;;
82310;SPS30;72015;51.330;12.316;2024-02-04T17:41:15;5.96;;5.36;;;;;;;
82310;SPS30;72015;51.330;12.316;2024-02-04T17:45:21;4.28;;4.28;;;;;;;
82310;SPS30;72015;51.330;12.316;2024-02-04T17:49:27;4.28;;4.28;;;;;;;
82310;SPS30;72015;51.330;12.316;2024-02-04T17:53:33;5.81;;5.30;;;;;;;
82310;SPS30;72015;51.330;12.316;2024-02-04T17:57:39;5.81;;5.30;;;;;;;
82310;SPS30;72015;51.330;12.316;2024-02-04T18:01:46;5.81;;5.30;;;;;;;
82310;SPS30;72015;51.330;12.316;2024-02-04T18:05:51;5.66;;4.60;;;;;;;
82310;SPS30;72015;51.330;12.316;2024-02-04T18:09:57;5.66;;4.60;;;;;;;
82310;SPS30;72015;51.330;12.316;2024-02-04T18:14:03;4.83;;4.27;;;;;;;
82310;SPS30;72015;51.330;12.316;2024-02-04T18:18:09;4.83;;4.27;;;;;;;
82310;SPS30;72015;51.330;12.316;2024-02-04T18:22:16;4.83;;4.27;;;;;;;
82310;SPS30;72015;51.330;12.316;2024-02-04T18:26:22;5.78;;4.83;;;;;;;
82310;SPS30;72015;51.330;12.316;2024-02-04T18:30:28;5.78;;4.83;;;;;;;
82310;SPS30;72015;51.330;12.316;2024-02-04T18:34:34;3.78;;3.67;;;;;;;
82310;SPS30;72015;51.330;12.316;2024-02-04T18:38:39;3.78;;3.67;;;;;;;
82310;SPS30;72015;51.330;12.316;2024-02-04T18:42:46;3.75;;3.51;;;;;;;
82310;SPS30;72015;51.330;12.316;2024-02-04T18:46:52;3.75;;3.51;;;;;;;
82310;SPS30;72015;51.330;12.316;2024-02-04T18:50:58;3.75;;3.51;;;;;;;
82310;SPS30;72015;51.330;12.316;2024-02-04T18:55:04;3.92;;3.64;;;;;;;
82310;SPS30;72015;51.330;12.316;2024-02-04T18:59:10;3.92;;3.64;;;;;;;
82310;SPS30;72015;51.330;12.316;2024-02-04T19:03:16;2.64;;2.53;;;;;;;
82310;SPS30;72015;51.330;12.316;2024-02-04T19:07:22;2.64;;2.53;;;;;;;
82310;SPS30;72015;51.330;12.316;2024-02-04T19:11:28;2.64;;2.53;;;;;;;
82310;SPS30;72015;51.330;12.316;2024-02-04T19:15:34;2.57;;2.57;;;;;;;
82310;SPS30;72015;51.330;12.316;2024-02-04T19:19:40;2.57;;2.57;;;;;;;
82310;SPS30;72015;51.330;12.316;2024-02-04T19:23:46;3.02;;3.02;;;;;;;
82310;SPS30;72015;51.330;12.316;2024-02-04T19:27:52;3.02;;3.02;;;;;;;
82310;SPS30;72015;51.330;12.316;2024-02-04T19:31:58;3.02;;3.02;;;;;;;
82310;SPS30;72015;51.330;12.316;2024-02-04T19:36:04;3.75;;3.29;;;;;;;
82310;SPS30;72015;51.330;12.316;2024-02-04T19:40:10;3.75;;3.29;;;;;;;
82310;SPS30;72015;51.330;12.316;2024-02-04T19:44:16;3.44;;3.44;;;;;;;
82310;SPS30;72015;51.330;12.316;2024-02-04T19:48:22;3.44;;3.44;;;;;;;
82310;SPS30;72015;51.330;12.316;2024-02-04T19:52:28;1.47;;1.47;;;;;;;
82310;SPS30;72015;51.330;12.316;2024-02-04T19:56:34;1.47;;1.47;;;;;;;
82310;SPS30;72015;51.330;12.316;2024-02-04T20:00:40;1.47;;1.47;;;;;;;
82310;SPS30;72015;51.330;12.316;2024-02-04T20:04:46;3.03;;2.71;;;;;;;
82310;SPS30;72015;51.330;12.316;2024-02-04T20:08:52;3.03;;2.71;;;;;;;
82310;SPS30;72015;51.330;12.316;2024-02-04T20:12:58;3.75;;3.56;;;;;;;
82310;SPS30;72015;51.330;12.316;2024-02-04T20:17:04;3.75;;3.56;;;;;;;
82310;SPS30;72015;51.330;12.316;2024-02-04T20:21:10;3.75;;3.56;;;;;;;
82310;SPS30;72015;51.330;12.316;2024-02-04T20:25:16;4.00;;3.60;;;;;;;
82310;SPS30;72015;51.330;12.316;2024-02-04T20:29:22;4.00;;3.60;;;;;;;
82310;SPS30;72015;51.330;12.316;2024-02-04T20:33:28;7.92;;6.47;;;;;;;
82310;SPS30;72015;51.330;12.316;2024-02-04T20:37:34;7.92;;6.47;;;;;;;
82310;SPS30;72015;51.330;12.316;2024-02-04T20:45:46;4.95;;4.75;;;;;;;
82310;SPS30;72015;51.330;12.316;2024-02-04T20:49:52;4.95;;4.75;;;;;;;
82310;SPS30;72015;51.330;12.316;2024-02-04T20:53:58;4.33;;3.73;;;;;;;
82310;SPS30;72015;51.330;12.316;2024-02-04T20:58:04;4.33;;3.73;;;;;;;
82310;SPS30;72015;51.330;12.316;2024-02-04T21:02:10;4.33;;3.73;;;;;;;
82310;SPS30;72015;51.330;12.316;2024-02-04T21:06:16;2.35;;2.35;;;;;;;
82310;SPS30;72015;51.330;12.316;2024-02-04T21:10:22;2.35;;2.35;;;;;;;
82310;SPS30;72015;51.330;12.316;2024-02-04T21:14:28;2.95;;2.95;;;;;;;
82310;SPS30;72015;51.330;12.316;2024-02-04T21:18:34;2.95;;2.95;;;;;;;
82310;SPS30;72015;51.330;12.316;2024-02-04T21:22:40;1.52;;1.52;;;;;;;
82310;SPS30;72015;51.330;12.316;2024-02-04T21:26:46;1.52;;1.52;;;;;;;
82310;SPS30;72015;51.330;12.316;2024-02-04T21:30:52;1.52;;1.52;;;;;;;
82310;SPS30;72015;51.330;12.316;2024-02-04T21:34:58;4.80;;3.68;;;;;;;
82310;SPS30;72015;51.330;12.316;2024-02-04T21:39:04;4.80;;3.68;;;;;;;
82310;SPS30;72015;51.330;12.316;2024-02-04T21:43:10;3.27;;2.85;;;;;;;
82310;SPS30;72015;51.330;12.316;2024-02-04T21:47:16;3.27;;2.85;;;;;;;
82310;SPS30;72015;51.330;12.316;2024-02-04T21:51:22;3.27;;2.85;;;;;;;
82310;SPS30;72015;51.330;12.316;2024-02-04T21:55:28;2.04;;1.80;;;;;;;
82310;SPS30;72015;51.330;12.316;2024-02-04T21:59:34;2.04;;1.80;;;;;;;
82310;SPS30;72015;51.330;12.316;2024-02-04T22:03:40;2.84;;2.31;;;;;;;
82310;SPS30;72015;51.330;12.316;2024-02-04T22:07:46;2.84;;2.31;;;;;;;
82310;SPS30;72015;51.330;12.316;2024-02-04T22:11:52;2.84;;2.31;;;;;;;
82310;SPS30;72015;51.330;12.316;2024-02-04T22:15:58;1.69;;1.69;;;;;;;
82310;SPS30;72015;51.330;12.316;2024-02-04T22:20:04;1.69;;1.69;;;;;;;
82310;SPS30;72015;51.330;12.316;2024-02-04T22:24:10;1.99;;1.57;;;;;;;
82310;SPS30;72015;51.330;12.316;2024-02-04T22:28:16;1.99;;1.57;;;;;;;
82310;SPS30;72015;51.330;12.316;2024-02-04T22:32:22;1.99;;1.57;;;;;;;
82310;SPS30;72015;51.330;12.316;2024-02-04T22:36:28;0.88;;0.88;;;;;;;
82310;SPS30;72015;51.330;12.316;2024-02-04T22:40:34;0.88;;0.88;;;;;;;
82310;SPS30;72015;51.330;12.316;2024-02-04T22:44:40;0.77;;0.77;;;;;;;
82310;SPS30;72015;51.330;12.316;2024-02-04T22:48:46;0.77;;0.77;;;;;;;
82310;SPS30;72015;51.330;12.316;2024-02-04T22:52:52;1.40;;1.15;;;;;;;
82310;SPS30;72015;51.330;12.316;2024-02-04T22:56:58;1.40;;1.15;;;;;;;
82310;SPS30;72015;51.330;12.316;2024-02-04T23:01:04;1.40;;1.15;;;;;;;
82310;SPS30;72015;51.330;12.316;2024-02-04T23:05:10;1.55;;1.15;;;;;;;
82310;SPS30;72015;51.330;12.316;2024-02-04T23:09:16;1.55;;1.15;;;;;;;
82310;SPS30;72015;51.330;12.316;2024-02-04T23:13:22;0.75;;0.75;;;;;;;
82310;SPS30;72015;51.330;12.316;2024-02-04T23:17:28;0.75;;0.75;;;;;;;
82310;SPS30;72015;51.330;12.316;2024-02-04T23:21:34;0.75;;0.75;;;;;;;
82310;SPS30;72015;51.330;12.316;2024-02-04T23:25:40;1.91;;1.47;;;;;;;
82310;SPS30;72015;51.330;12.316;2024-02-04T23:29:46;1.91;;1.47;;;;;;;
82310;SPS30;72015;51.330;12.316;2024-02-04T23:33:52;1.62;;1.15;;;;;;;